sensor_id;sensor_type;location;lat;lon;timestamp;P1;durP1;ratioP1;P2;durP2;ratioP2
27025;SDS011;14565;48.626;8.978;2022-10-22T00:01:01;3.47;;;0.80;;
27025;SDS011;14565;48.626;8.978;2022-10-22T00:03:26;3.90;;;1.00;;
27025;SDS011;14565;48.626;8.978;2022-10-22T00:05:52;3.25;;;1.25;;
27025;SDS011;14565;48.626;8.978;2022-10-22T00:08:18;2.90;;;0.90;;
27025;SDS011;14565;48.626;8.978;2022-10-22T00:10:43;4.80;;;1.00;;
27025;SDS011;14565;48.626;8.978;2022-10-22T00:13:09;2.42;;;1.00;;
27025;SDS011;14565;48.626;8.978;2022-10-22T00:15:35;1.13;;;0.90;;
27025;SDS011;14565;48.626;8.978;2022-10-22T00:18:01;2.83;;;1.10;;
27025;SDS011;14565;48.626;8.978;2022-10-22T00:20:27;3.78;;;1.20;;
27025;SDS011;14565;48.626;8.978;2022-10-22T00:22:52;2.55;;;1.00;;
27025;SDS011;14565;48.626;8.978;2022-10-22T00:25:18;3.58;;;1.10;;
27025;SDS011;14565;48.626;8.978;2022-10-22T00:27:44;4.28;;;1.30;;
27025;SDS011;14565;48.626;8.978;2022-10-22T00:30:09;2.95;;;1.23;;
27025;SDS011;14565;48.626;8.978;2022-10-22T00:32:35;4.35;;;1.65;;
27025;SDS011;14565;48.626;8.978;2022-10-22T00:35:01;4.82;;;1.50;;
27025;SDS011;14565;48.626;8.978;2022-10-22T00:37:27;1.55;;;1.27;;
27025;SDS011;14565;48.626;8.978;2022-10-22T00:39:54;3.05;;;1.40;;
27025;SDS011;14565;48.626;8.978;2022-10-22T00:42:21;4.15;;;1.20;;
27025;SDS011;14565;48.626;8.978;2022-10-22T00:50:06;2.10;;;1.10;;
27025;SDS011;14565;48.626;8.978;2022-10-22T00:52:38;3.10;;;1.10;;
27025;SDS011;14565;48.626;8.978;2022-10-22T00:55:04;3.53;;;1.30;;
27025;SDS011;14565;48.626;8.978;2022-10-22T00:57:30;4.25;;;1.42;;
27025;SDS011;14565;48.626;8.978;2022-10-22T00:59:58;3.38;;;1.40;;
27025;SDS011;14565;48.626;8.978;2022-10-22T01:02:23;3.70;;;1.58;;
27025;SDS011;14565;48.626;8.978;2022-10-22T01:04:49;2.92;;;1.40;;
27025;SDS011;14565;48.626;8.978;2022-10-22T01:07:19;4.90;;;1.48;;
27025;SDS011;14565;48.626;8.978;2022-10-22T01:15:15;1.60;;;1.40;;
27025;SDS011;14565;48.626;8.978;2022-10-22T01:18:08;3.50;;;1.00;;
27025;SDS011;14565;48.626;8.978;2022-10-22T01:23:54;4.35;;;1.30;;
27025;SDS011;14565;48.626;8.978;2022-10-22T01:26:53;3.42;;;1.33;;
27025;SDS011;14565;48.626;8.978;2022-10-22T01:30:17;2.25;;;1.45;;
27025;SDS011;14565;48.626;8.978;2022-10-22T01:32:47;6.50;;;1.50;;
27025;SDS011;14565;48.626;8.978;2022-10-22T01:35:16;3.30;;;1.55;;
27025;SDS011;14565;48.626;8.978;2022-10-22T01:37:51;3.40;;;1.55;;
27025;SDS011;14565;48.626;8.978;2022-10-22T01:40:20;6.07;;;1.67;;
27025;SDS011;14565;48.626;8.978;2022-10-22T01:42:57;1.50;;;1.30;;
27025;SDS011;14565;48.626;8.978;2022-10-22T01:45:24;8.60;;;1.60;;
27025;SDS011;14565;48.626;8.978;2022-10-22T01:59:16;2.63;;;1.40;;
27025;SDS011;14565;48.626;8.978;2022-10-22T02:04:29;2.70;;;1.20;;
27025;SDS011;14565;48.626;8.978;2022-10-22T02:07:17;2.08;;;1.67;;
27025;SDS011;14565;48.626;8.978;2022-10-22T02:09:45;3.20;;;1.80;;
27025;SDS011;14565;48.626;8.978;2022-10-22T02:12:13;3.88;;;1.27;;
27025;SDS011;14565;48.626;8.978;2022-10-22T02:14:41;2.97;;;1.30;;
27025;SDS011;14565;48.626;8.978;2022-10-22T02:17:09;4.05;;;1.40;;
27025;SDS011;14565;48.626;8.978;2022-10-22T02:19:40;4.03;;;1.40;;
27025;SDS011;14565;48.626;8.978;2022-10-22T02:22:11;5.25;;;1.30;;
27025;SDS011;14565;48.626;8.978;2022-10-22T02:24:37;2.63;;;1.42;;
27025;SDS011;14565;48.626;8.978;2022-10-22T02:27:06;5.00;;;1.52;;
27025;SDS011;14565;48.626;8.978;2022-10-22T02:29:39;4.88;;;1.50;;
27025;SDS011;14565;48.626;8.978;2022-10-22T02:32:33;6.32;;;1.58;;
27025;SDS011;14565;48.626;8.978;2022-10-22T02:35:22;5.50;;;1.20;;
27025;SDS011;14565;48.626;8.978;2022-10-22T02:37:50;2.63;;;1.15;;
27025;SDS011;14565;48.626;8.978;2022-10-22T02:40:18;3.60;;;1.77;;
27025;SDS011;14565;48.626;8.978;2022-10-22T02:42:45;3.28;;;1.60;;
27025;SDS011;14565;48.626;8.978;2022-10-22T02:45:11;6.35;;;1.10;;
27025;SDS011;14565;48.626;8.978;2022-10-22T02:47:37;3.70;;;1.30;;
27025;SDS011;14565;48.626;8.978;2022-10-22T02:50:03;2.47;;;1.63;;
27025;SDS011;14565;48.626;8.978;2022-10-22T02:52:29;6.90;;;1.73;;
27025;SDS011;14565;48.626;8.978;2022-10-22T02:54:55;2.20;;;1.30;;
27025;SDS011;14565;48.626;8.978;2022-10-22T02:57:21;2.13;;;1.30;;
27025;SDS011;14565;48.626;8.978;2022-10-22T02:59:46;2.78;;;1.20;;
27025;SDS011;14565;48.626;8.978;2022-10-22T03:02:12;1.70;;;0.98;;
27025;SDS011;14565;48.626;8.978;2022-10-22T03:04:38;2.53;;;1.20;;
27025;SDS011;14565;48.626;8.978;2022-10-22T03:07:03;2.85;;;1.30;;
27025;SDS011;14565;48.626;8.978;2022-10-22T03:09:29;3.60;;;1.30;;
27025;SDS011;14565;48.626;8.978;2022-10-22T03:11:54;2.80;;;1.30;;
27025;SDS011;14565;48.626;8.978;2022-10-22T03:14:20;2.03;;;1.50;;
27025;SDS011;14565;48.626;8.978;2022-10-22T03:16:46;3.47;;;2.08;;
27025;SDS011;14565;48.626;8.978;2022-10-22T03:19:11;3.15;;;1.85;;
27025;SDS011;14565;48.626;8.978;2022-10-22T03:24:21;4.78;;;2.20;;
27025;SDS011;14565;48.626;8.978;2022-10-22T03:26:55;3.58;;;1.80;;
27025;SDS011;14565;48.626;8.978;2022-10-22T03:29:22;3.30;;;2.13;;
27025;SDS011;14565;48.626;8.978;2022-10-22T03:31:48;2.10;;;1.63;;
27025;SDS011;14565;48.626;8.978;2022-10-22T03:34:14;3.20;;;1.70;;
27025;SDS011;14565;48.626;8.978;2022-10-22T03:36:40;4.13;;;1.80;;
27025;SDS011;14565;48.626;8.978;2022-10-22T03:39:06;5.50;;;1.60;;
27025;SDS011;14565;48.626;8.978;2022-10-22T03:41:32;2.25;;;1.67;;
27025;SDS011;14565;48.626;8.978;2022-10-22T03:43:59;4.20;;;1.48;;
27025;SDS011;14565;48.626;8.978;2022-10-22T03:46:25;2.83;;;1.48;;
27025;SDS011;14565;48.626;8.978;2022-10-22T03:48:51;3.38;;;1.42;;
27025;SDS011;14565;48.626;8.978;2022-10-22T03:51:17;2.22;;;1.42;;
27025;SDS011;14565;48.626;8.978;2022-10-22T03:53:42;5.95;;;1.20;;
27025;SDS011;14565;48.626;8.978;2022-10-22T03:56:08;2.63;;;1.55;;
27025;SDS011;14565;48.626;8.978;2022-10-22T03:58:35;2.75;;;1.48;;
27025;SDS011;14565;48.626;8.978;2022-10-22T04:01:05;2.17;;;1.60;;
27025;SDS011;14565;48.626;8.978;2022-10-22T04:03:33;3.17;;;1.45;;
27025;SDS011;14565;48.626;8.978;2022-10-22T04:06:00;4.13;;;1.60;;
27025;SDS011;14565;48.626;8.978;2022-10-22T04:08:33;4.95;;;2.05;;
27025;SDS011;14565;48.626;8.978;2022-10-22T04:10:59;2.70;;;1.85;;
27025;SDS011;14565;48.626;8.978;2022-10-22T04:13:24;3.75;;;1.90;;
27025;SDS011;14565;48.626;8.978;2022-10-22T04:15:50;3.78;;;1.67;;
27025;SDS011;14565;48.626;8.978;2022-10-22T04:18:16;3.17;;;1.77;;
27025;SDS011;14565;48.626;8.978;2022-10-22T04:20:43;2.47;;;1.60;;
27025;SDS011;14565;48.626;8.978;2022-10-22T04:23:09;3.63;;;1.60;;
27025;SDS011;14565;48.626;8.978;2022-10-22T04:25:35;2.72;;;1.23;;
27025;SDS011;14565;48.626;8.978;2022-10-22T04:28:00;3.25;;;1.48;;
27025;SDS011;14565;48.626;8.978;2022-10-22T04:30:26;5.03;;;1.75;;
27025;SDS011;14565;48.626;8.978;2022-10-22T04:32:52;6.75;;;3.70;;
27025;SDS011;14565;48.626;8.978;2022-10-22T04:35:17;5.93;;;5.20;;
27025;SDS011;14565;48.626;8.978;2022-10-22T04:37:43;6.07;;;3.30;;
27025;SDS011;14565;48.626;8.978;2022-10-22T04:40:09;5.30;;;2.22;;
27025;SDS011;14565;48.626;8.978;2022-10-22T04:42:35;2.50;;;1.45;;
27025;SDS011;14565;48.626;8.978;2022-10-22T04:45:01;2.80;;;1.70;;
27025;SDS011;14565;48.626;8.978;2022-10-22T04:47:26;2.90;;;1.80;;
27025;SDS011;14565;48.626;8.978;2022-10-22T04:49:52;3.53;;;1.90;;
27025;SDS011;14565;48.626;8.978;2022-10-22T04:52:18;3.88;;;2.03;;
27025;SDS011;14565;48.626;8.978;2022-10-22T04:54:43;2.50;;;1.63;;
27025;SDS011;14565;48.626;8.978;2022-10-22T04:57:09;5.72;;;1.70;;
27025;SDS011;14565;48.626;8.978;2022-10-22T04:59:34;11.73;;;4.25;;
27025;SDS011;14565;48.626;8.978;2022-10-22T05:02:00;6.47;;;4.82;;
27025;SDS011;14565;48.626;8.978;2022-10-22T05:04:26;9.15;;;4.47;;
27025;SDS011;14565;48.626;8.978;2022-10-22T05:06:51;6.63;;;2.50;;
27025;SDS011;14565;48.626;8.978;2022-10-22T05:09:18;5.15;;;2.80;;
27025;SDS011;14565;48.626;8.978;2022-10-22T05:11:44;3.00;;;1.83;;
27025;SDS011;14565;48.626;8.978;2022-10-22T05:14:12;4.20;;;1.83;;
27025;SDS011;14565;48.626;8.978;2022-10-22T05:16:41;3.08;;;1.80;;
27025;SDS011;14565;48.626;8.978;2022-10-22T05:19:06;1.55;;;1.45;;
27025;SDS011;14565;48.626;8.978;2022-10-22T05:21:33;2.25;;;1.48;;
27025;SDS011;14565;48.626;8.978;2022-10-22T05:23:59;3.42;;;1.90;;
27025;SDS011;14565;48.626;8.978;2022-10-22T05:26:25;6.30;;;2.05;;
27025;SDS011;14565;48.626;8.978;2022-10-22T05:28:52;4.95;;;1.70;;
27025;SDS011;14565;48.626;8.978;2022-10-22T05:31:17;2.15;;;1.90;;
27025;SDS011;14565;48.626;8.978;2022-10-22T05:33:44;3.08;;;2.55;;
27025;SDS011;14565;48.626;8.978;2022-10-22T05:36:14;6.93;;;2.47;;
27025;SDS011;14565;48.626;8.978;2022-10-22T05:38:45;2.13;;;1.50;;
27025;SDS011;14565;48.626;8.978;2022-10-22T05:41:14;3.10;;;1.42;;
27025;SDS011;14565;48.626;8.978;2022-10-22T05:43:41;1.13;;;0.88;;
27025;SDS011;14565;48.626;8.978;2022-10-22T05:46:07;3.22;;;1.25;;
27025;SDS011;14565;48.626;8.978;2022-10-22T05:48:35;2.38;;;1.10;;
27025;SDS011;14565;48.626;8.978;2022-10-22T05:51:02;4.32;;;1.23;;
27025;SDS011;14565;48.626;8.978;2022-10-22T05:53:32;1.90;;;1.10;;
27025;SDS011;14565;48.626;8.978;2022-10-22T05:56:00;2.35;;;1.05;;
27025;SDS011;14565;48.626;8.978;2022-10-22T05:58:36;1.60;;;0.90;;
27025;SDS011;14565;48.626;8.978;2022-10-22T06:01:07;2.50;;;0.75;;
27025;SDS011;14565;48.626;8.978;2022-10-22T06:03:39;2.53;;;1.00;;
27025;SDS011;14565;48.626;8.978;2022-10-22T06:08:55;13.13;;;1.35;;
27025;SDS011;14565;48.626;8.978;2022-10-22T06:11:26;3.65;;;1.33;;
27025;SDS011;14565;48.626;8.978;2022-10-22T06:13:52;4.53;;;2.65;;
27025;SDS011;14565;48.626;8.978;2022-10-22T06:16:17;6.22;;;2.22;;
27025;SDS011;14565;48.626;8.978;2022-10-22T06:18:43;5.45;;;3.42;;
27025;SDS011;14565;48.626;8.978;2022-10-22T06:21:09;7.18;;;2.05;;
27025;SDS011;14565;48.626;8.978;2022-10-22T06:23:36;2.63;;;0.88;;
27025;SDS011;14565;48.626;8.978;2022-10-22T06:26:03;2.15;;;0.70;;
27025;SDS011;14565;48.626;8.978;2022-10-22T06:28:30;4.07;;;0.93;;
27025;SDS011;14565;48.626;8.978;2022-10-22T06:30:56;4.28;;;0.80;;
27025;SDS011;14565;48.626;8.978;2022-10-22T06:33:22;1.85;;;0.80;;
27025;SDS011;14565;48.626;8.978;2022-10-22T06:35:48;5.38;;;1.90;;
27025;SDS011;14565;48.626;8.978;2022-10-22T06:38:14;9.00;;;1.10;;
27025;SDS011;14565;48.626;8.978;2022-10-22T06:40:40;4.15;;;0.82;;
27025;SDS011;14565;48.626;8.978;2022-10-22T06:43:07;2.10;;;0.77;;
27025;SDS011;14565;48.626;8.978;2022-10-22T06:45:34;2.45;;;0.75;;
27025;SDS011;14565;48.626;8.978;2022-10-22T06:47:59;0.70;;;0.70;;
27025;SDS011;14565;48.626;8.978;2022-10-22T06:50:25;2.55;;;0.90;;
27025;SDS011;14565;48.626;8.978;2022-10-22T06:52:51;3.38;;;0.77;;
27025;SDS011;14565;48.626;8.978;2022-10-22T06:55:16;3.25;;;0.82;;
27025;SDS011;14565;48.626;8.978;2022-10-22T06:57:42;2.78;;;1.00;;
27025;SDS011;14565;48.626;8.978;2022-10-22T07:00:08;1.10;;;0.70;;
27025;SDS011;14565;48.626;8.978;2022-10-22T07:02:34;1.00;;;0.70;;
27025;SDS011;14565;48.626;8.978;2022-10-22T07:04:59;2.58;;;1.27;;
27025;SDS011;14565;48.626;8.978;2022-10-22T07:07:25;2.85;;;1.08;;
27025;SDS011;14565;48.626;8.978;2022-10-22T07:09:51;2.90;;;1.30;;
27025;SDS011;14565;48.626;8.978;2022-10-22T07:12:16;2.50;;;0.93;;
27025;SDS011;14565;48.626;8.978;2022-10-22T07:14:42;2.00;;;1.02;;
27025;SDS011;14565;48.626;8.978;2022-10-22T07:17:08;3.38;;;1.40;;
27025;SDS011;14565;48.626;8.978;2022-10-22T07:19:34;3.55;;;1.60;;
27025;SDS011;14565;48.626;8.978;2022-10-22T07:22:00;2.10;;;1.30;;
27025;SDS011;14565;48.626;8.978;2022-10-22T07:24:26;2.88;;;0.77;;
27025;SDS011;14565;48.626;8.978;2022-10-22T07:26:51;1.42;;;0.98;;
27025;SDS011;14565;48.626;8.978;2022-10-22T07:29:17;1.35;;;0.90;;
27025;SDS011;14565;48.626;8.978;2022-10-22T07:31:43;2.30;;;0.73;;
27025;SDS011;14565;48.626;8.978;2022-10-22T07:34:08;2.83;;;0.90;;
27025;SDS011;14565;48.626;8.978;2022-10-22T07:36:34;1.10;;;0.98;;
27025;SDS011;14565;48.626;8.978;2022-10-22T07:39:00;1.10;;;0.90;;
27025;SDS011;14565;48.626;8.978;2022-10-22T07:41:27;1.65;;;1.10;;
27025;SDS011;14565;48.626;8.978;2022-10-22T07:43:54;5.32;;;1.00;;
27025;SDS011;14565;48.626;8.978;2022-10-22T07:46:21;1.20;;;0.80;;
27025;SDS011;14565;48.626;8.978;2022-10-22T07:48:46;2.45;;;1.00;;
27025;SDS011;14565;48.626;8.978;2022-10-22T07:51:12;1.25;;;0.93;;
27025;SDS011;14565;48.626;8.978;2022-10-22T07:53:38;1.30;;;0.90;;
27025;SDS011;14565;48.626;8.978;2022-10-22T07:56:04;1.95;;;0.90;;
27025;SDS011;14565;48.626;8.978;2022-10-22T07:58:30;1.77;;;1.00;;
27025;SDS011;14565;48.626;8.978;2022-10-22T08:00:57;3.40;;;1.50;;
27025;SDS011;14565;48.626;8.978;2022-10-22T08:03:29;1.52;;;1.00;;
27025;SDS011;14565;48.626;8.978;2022-10-22T08:05:56;2.90;;;0.93;;
27025;SDS011;14565;48.626;8.978;2022-10-22T08:08:22;3.00;;;1.15;;
27025;SDS011;14565;48.626;8.978;2022-10-22T08:10:49;1.75;;;0.90;;
27025;SDS011;14565;48.626;8.978;2022-10-22T08:13:16;2.28;;;1.15;;
27025;SDS011;14565;48.626;8.978;2022-10-22T08:15:42;1.35;;;1.10;;
27025;SDS011;14565;48.626;8.978;2022-10-22T08:18:08;1.63;;;1.20;;
27025;SDS011;14565;48.626;8.978;2022-10-22T08:20:34;1.70;;;1.10;;
27025;SDS011;14565;48.626;8.978;2022-10-22T08:23:00;5.32;;;1.50;;
27025;SDS011;14565;48.626;8.978;2022-10-22T08:25:25;1.85;;;0.90;;
27025;SDS011;14565;48.626;8.978;2022-10-22T08:27:51;2.78;;;1.30;;
27025;SDS011;14565;48.626;8.978;2022-10-22T08:30:17;5.82;;;1.30;;
27025;SDS011;14565;48.626;8.978;2022-10-22T08:32:43;3.42;;;1.15;;
27025;SDS011;14565;48.626;8.978;2022-10-22T08:35:09;2.78;;;1.40;;
27025;SDS011;14565;48.626;8.978;2022-10-22T08:37:35;1.70;;;1.30;;
27025;SDS011;14565;48.626;8.978;2022-10-22T08:40:01;1.73;;;1.10;;
27025;SDS011;14565;48.626;8.978;2022-10-22T08:50:33;3.47;;;1.15;;
27025;SDS011;14565;48.626;8.978;2022-10-22T08:53:03;2.78;;;1.00;;
27025;SDS011;14565;48.626;8.978;2022-10-22T08:55:36;3.58;;;1.00;;
27025;SDS011;14565;48.626;8.978;2022-10-22T09:06:23;0.98;;;0.88;;
27025;SDS011;14565;48.626;8.978;2022-10-22T09:13:51;5.20;;;0.95;;
27025;SDS011;14565;48.626;8.978;2022-10-22T09:16:21;4.25;;;1.15;;
27025;SDS011;14565;48.626;8.978;2022-10-22T09:24:45;5.25;;;1.10;;
27025;SDS011;14565;48.626;8.978;2022-10-22T09:27:20;1.92;;;0.90;;
27025;SDS011;14565;48.626;8.978;2022-10-22T09:29:51;2.15;;;0.88;;
27025;SDS011;14565;48.626;8.978;2022-10-22T09:32:16;3.03;;;1.10;;
27025;SDS011;14565;48.626;8.978;2022-10-22T09:34:43;2.72;;;0.90;;
27025;SDS011;14565;48.626;8.978;2022-10-22T09:37:10;1.20;;;0.80;;
27025;SDS011;14565;48.626;8.978;2022-10-22T09:39:37;3.67;;;0.95;;
27025;SDS011;14565;48.626;8.978;2022-10-22T09:42:13;4.22;;;1.13;;
27025;SDS011;14565;48.626;8.978;2022-10-22T09:44:40;1.58;;;0.93;;
27025;SDS011;14565;48.626;8.978;2022-10-22T09:47:06;3.50;;;1.00;;
27025;SDS011;14565;48.626;8.978;2022-10-22T09:50:02;2.92;;;0.93;;
27025;SDS011;14565;48.626;8.978;2022-10-22T09:52:42;1.40;;;0.88;;
27025;SDS011;14565;48.626;8.978;2022-10-22T09:55:15;3.72;;;0.80;;
27025;SDS011;14565;48.626;8.978;2022-10-22T09:57:42;1.92;;;0.80;;
27025;SDS011;14565;48.626;8.978;2022-10-22T10:00:16;2.58;;;0.73;;
27025;SDS011;14565;48.626;8.978;2022-10-22T10:02:43;1.58;;;0.88;;
27025;SDS011;14565;48.626;8.978;2022-10-22T10:05:16;3.50;;;1.40;;
27025;SDS011;14565;48.626;8.978;2022-10-22T10:07:43;1.85;;;0.90;;
27025;SDS011;14565;48.626;8.978;2022-10-22T10:13:08;3.63;;;1.00;;
27025;SDS011;14565;48.626;8.978;2022-10-22T10:16:11;4.05;;;1.10;;
27025;SDS011;14565;48.626;8.978;2022-10-22T10:24:29;3.97;;;0.93;;
27025;SDS011;14565;48.626;8.978;2022-10-22T10:48:57;4.22;;;0.88;;
27025;SDS011;14565;48.626;8.978;2022-10-22T10:59:57;2.47;;;0.70;;
27025;SDS011;14565;48.626;8.978;2022-10-22T11:07:35;4.45;;;0.90;;
27025;SDS011;14565;48.626;8.978;2022-10-22T11:15:38;3.38;;;0.88;;
27025;SDS011;14565;48.626;8.978;2022-10-22T11:20:47;1.48;;;0.77;;
27025;SDS011;14565;48.626;8.978;2022-10-22T11:23:35;2.92;;;0.98;;
27025;SDS011;14565;48.626;8.978;2022-10-22T11:26:18;3.17;;;0.85;;
27025;SDS011;14565;48.626;8.978;2022-10-22T11:29:00;4.90;;;1.00;;
27025;SDS011;14565;48.626;8.978;2022-10-22T11:31:28;3.28;;;0.90;;
27025;SDS011;14565;48.626;8.978;2022-10-22T11:36:33;5.72;;;1.58;;
27025;SDS011;14565;48.626;8.978;2022-10-22T11:39:01;6.40;;;1.10;;
27025;SDS011;14565;48.626;8.978;2022-10-22T11:41:28;3.85;;;0.68;;
27025;SDS011;14565;48.626;8.978;2022-10-22T11:44:09;5.05;;;0.90;;
27025;SDS011;14565;48.626;8.978;2022-10-22T11:46:44;4.05;;;0.73;;
27025;SDS011;14565;48.626;8.978;2022-10-22T11:49:22;5.47;;;0.77;;
27025;SDS011;14565;48.626;8.978;2022-10-22T11:52:24;4.03;;;0.82;;
27025;SDS011;14565;48.626;8.978;2022-10-22T11:54:53;2.63;;;0.80;;
27025;SDS011;14565;48.626;8.978;2022-10-22T11:57:21;2.78;;;0.80;;
27025;SDS011;14565;48.626;8.978;2022-10-22T11:59:52;3.42;;;0.60;;
27025;SDS011;14565;48.626;8.978;2022-10-22T12:04:48;3.70;;;0.77;;
27025;SDS011;14565;48.626;8.978;2022-10-22T12:07:31;4.93;;;0.90;;
27025;SDS011;14565;48.626;8.978;2022-10-22T12:09:59;4.43;;;0.90;;
27025;SDS011;14565;48.626;8.978;2022-10-22T12:12:33;3.65;;;0.93;;
27025;SDS011;14565;48.626;8.978;2022-10-22T12:15:19;5.22;;;1.08;;
27025;SDS011;14565;48.626;8.978;2022-10-22T12:17:48;3.22;;;0.90;;
27025;SDS011;14565;48.626;8.978;2022-10-22T12:20:14;3.15;;;0.80;;
27025;SDS011;14565;48.626;8.978;2022-10-22T12:22:41;3.80;;;0.95;;
27025;SDS011;14565;48.626;8.978;2022-10-22T12:25:28;2.58;;;0.80;;
27025;SDS011;14565;48.626;8.978;2022-10-22T12:27:56;6.30;;;0.85;;
27025;SDS011;14565;48.626;8.978;2022-10-22T12:30:27;4.55;;;0.85;;
27025;SDS011;14565;48.626;8.978;2022-10-22T12:32:58;3.95;;;1.02;;
27025;SDS011;14565;48.626;8.978;2022-10-22T12:35:27;3.22;;;0.82;;
27025;SDS011;14565;48.626;8.978;2022-10-22T12:37:55;3.95;;;1.13;;
27025;SDS011;14565;48.626;8.978;2022-10-22T12:40:23;5.93;;;0.70;;
27025;SDS011;14565;48.626;8.978;2022-10-22T12:42:53;5.00;;;0.90;;
27025;SDS011;14565;48.626;8.978;2022-10-22T12:45:19;5.18;;;1.10;;
27025;SDS011;14565;48.626;8.978;2022-10-22T12:47:49;2.03;;;0.70;;
27025;SDS011;14565;48.626;8.978;2022-10-22T12:50:17;4.70;;;0.95;;
27025;SDS011;14565;48.626;8.978;2022-10-22T12:52:46;3.20;;;0.75;;
27025;SDS011;14565;48.626;8.978;2022-10-22T12:55:16;2.78;;;0.65;;
27025;SDS011;14565;48.626;8.978;2022-10-22T12:57:45;2.78;;;0.55;;
27025;SDS011;14565;48.626;8.978;2022-10-22T13:00:22;2.30;;;0.68;;
27025;SDS011;14565;48.626;8.978;2022-10-22T13:02:50;2.35;;;0.73;;
27025;SDS011;14565;48.626;8.978;2022-10-22T13:05:24;3.03;;;0.80;;
27025;SDS011;14565;48.626;8.978;2022-10-22T13:08:11;4.97;;;0.73;;
27025;SDS011;14565;48.626;8.978;2022-10-22T13:10:47;2.35;;;0.88;;
27025;SDS011;14565;48.626;8.978;2022-10-22T13:18:50;6.18;;;0.85;;
27025;SDS011;14565;48.626;8.978;2022-10-22T13:21:21;6.13;;;0.88;;
27025;SDS011;14565;48.626;8.978;2022-10-22T13:23:54;3.80;;;0.75;;
27025;SDS011;14565;48.626;8.978;2022-10-22T13:26:28;4.50;;;0.90;;
27025;SDS011;14565;48.626;8.978;2022-10-22T13:28:56;3.38;;;0.90;;
27025;SDS011;14565;48.626;8.978;2022-10-22T13:31:27;2.83;;;0.70;;
27025;SDS011;14565;48.626;8.978;2022-10-22T13:34:01;4.40;;;1.02;;
27025;SDS011;14565;48.626;8.978;2022-10-22T13:36:34;2.28;;;0.80;;
27025;SDS011;14565;48.626;8.978;2022-10-22T13:39:00;2.78;;;1.00;;
27025;SDS011;14565;48.626;8.978;2022-10-22T13:41:27;4.78;;;0.98;;
27025;SDS011;14565;48.626;8.978;2022-10-22T13:43:56;4.80;;;0.90;;
27025;SDS011;14565;48.626;8.978;2022-10-22T13:46:22;2.58;;;0.80;;
27025;SDS011;14565;48.626;8.978;2022-10-22T13:48:50;3.40;;;0.90;;
27025;SDS011;14565;48.626;8.978;2022-10-22T13:51:19;6.63;;;0.85;;
27025;SDS011;14565;48.626;8.978;2022-10-22T13:53:47;3.38;;;0.88;;
27025;SDS011;14565;48.626;8.978;2022-10-22T13:56:17;2.65;;;0.68;;
27025;SDS011;14565;48.626;8.978;2022-10-22T13:58:44;3.25;;;0.90;;
27025;SDS011;14565;48.626;8.978;2022-10-22T14:01:21;3.20;;;0.90;;
27025;SDS011;14565;48.626;8.978;2022-10-22T14:03:51;4.97;;;1.00;;
27025;SDS011;14565;48.626;8.978;2022-10-22T14:06:22;3.70;;;0.70;;
27025;SDS011;14565;48.626;8.978;2022-10-22T14:08:52;3.30;;;1.00;;
27025;SDS011;14565;48.626;8.978;2022-10-22T14:11:21;3.42;;;0.82;;
27025;SDS011;14565;48.626;8.978;2022-10-22T14:13:46;1.35;;;0.73;;
27025;SDS011;14565;48.626;8.978;2022-10-22T14:16:17;3.28;;;0.70;;
27025;SDS011;14565;48.626;8.978;2022-10-22T14:18:45;1.50;;;0.80;;
27025;SDS011;14565;48.626;8.978;2022-10-22T14:21:12;2.95;;;0.80;;
27025;SDS011;14565;48.626;8.978;2022-10-22T14:23:40;5.07;;;0.60;;
27025;SDS011;14565;48.626;8.978;2022-10-22T14:26:06;7.20;;;0.90;;
27025;SDS011;14565;48.626;8.978;2022-10-22T14:28:35;1.80;;;0.80;;
27025;SDS011;14565;48.626;8.978;2022-10-22T14:31:01;5.60;;;0.80;;
27025;SDS011;14565;48.626;8.978;2022-10-22T14:33:28;3.60;;;0.80;;
27025;SDS011;14565;48.626;8.978;2022-10-22T14:35:56;4.10;;;0.90;;
27025;SDS011;14565;48.626;8.978;2022-10-22T14:38:22;4.63;;;0.70;;
27025;SDS011;14565;48.626;8.978;2022-10-22T14:40:48;2.60;;;0.80;;
27025;SDS011;14565;48.626;8.978;2022-10-22T14:45:45;2.35;;;1.02;;
27025;SDS011;14565;48.626;8.978;2022-10-22T14:48:10;1.80;;;0.77;;
27025;SDS011;14565;48.626;8.978;2022-10-22T14:50:36;3.42;;;1.00;;
27025;SDS011;14565;48.626;8.978;2022-10-22T14:53:02;1.88;;;0.90;;
27025;SDS011;14565;48.626;8.978;2022-10-22T14:55:27;4.20;;;0.80;;
27025;SDS011;14565;48.626;8.978;2022-10-22T14:57:53;5.70;;;0.90;;
27025;SDS011;14565;48.626;8.978;2022-10-22T15:00:19;2.13;;;0.90;;
27025;SDS011;14565;48.626;8.978;2022-10-22T15:02:46;5.95;;;1.00;;
27025;SDS011;14565;48.626;8.978;2022-10-22T15:05:12;2.40;;;0.88;;
27025;SDS011;14565;48.626;8.978;2022-10-22T15:07:39;2.17;;;0.90;;
27025;SDS011;14565;48.626;8.978;2022-10-22T15:10:06;4.40;;;1.08;;
27025;SDS011;14565;48.626;8.978;2022-10-22T15:12:32;2.30;;;0.90;;
27025;SDS011;14565;48.626;8.978;2022-10-22T15:14:58;2.58;;;0.90;;
27025;SDS011;14565;48.626;8.978;2022-10-22T15:17:24;3.83;;;1.13;;
27025;SDS011;14565;48.626;8.978;2022-10-22T15:19:49;6.15;;;1.67;;
27025;SDS011;14565;48.626;8.978;2022-10-22T15:22:17;4.18;;;1.20;;
27025;SDS011;14565;48.626;8.978;2022-10-22T15:24:43;2.20;;;0.88;;
27025;SDS011;14565;48.626;8.978;2022-10-22T15:27:12;1.52;;;0.75;;
27025;SDS011;14565;48.626;8.978;2022-10-22T15:29:38;4.20;;;1.10;;
27025;SDS011;14565;48.626;8.978;2022-10-22T15:32:05;5.47;;;0.95;;
27025;SDS011;14565;48.626;8.978;2022-10-22T15:34:32;2.13;;;1.00;;
27025;SDS011;14565;48.626;8.978;2022-10-22T15:37:00;4.35;;;0.85;;
27025;SDS011;14565;48.626;8.978;2022-10-22T15:39:28;2.67;;;1.00;;
27025;SDS011;14565;48.626;8.978;2022-10-22T15:41:54;2.60;;;0.85;;
27025;SDS011;14565;48.626;8.978;2022-10-22T15:44:24;2.22;;;0.85;;
27025;SDS011;14565;48.626;8.978;2022-10-22T15:46:51;3.53;;;0.85;;
27025;SDS011;14565;48.626;8.978;2022-10-22T15:49:20;3.42;;;1.17;;
27025;SDS011;14565;48.626;8.978;2022-10-22T15:51:50;3.40;;;1.10;;
27025;SDS011;14565;48.626;8.978;2022-10-22T15:54:17;5.15;;;0.90;;
27025;SDS011;14565;48.626;8.978;2022-10-22T15:56:44;2.95;;;0.80;;
27025;SDS011;14565;48.626;8.978;2022-10-22T15:59:10;2.72;;;0.90;;
27025;SDS011;14565;48.626;8.978;2022-10-22T16:01:37;1.80;;;0.90;;
27025;SDS011;14565;48.626;8.978;2022-10-22T16:04:04;9.88;;;1.08;;
27025;SDS011;14565;48.626;8.978;2022-10-22T16:06:31;6.55;;;1.17;;
27025;SDS011;14565;48.626;8.978;2022-10-22T16:08:59;6.10;;;1.30;;
27025;SDS011;14565;48.626;8.978;2022-10-22T16:11:27;4.68;;;1.85;;
27025;SDS011;14565;48.626;8.978;2022-10-22T16:13:53;6.47;;;3.10;;
27025;SDS011;14565;48.626;8.978;2022-10-22T16:16:21;7.28;;;3.30;;
27025;SDS011;14565;48.626;8.978;2022-10-22T16:18:49;6.82;;;2.25;;
27025;SDS011;14565;48.626;8.978;2022-10-22T16:21:15;4.03;;;2.20;;
27025;SDS011;14565;48.626;8.978;2022-10-22T16:23:41;3.92;;;1.55;;
27025;SDS011;14565;48.626;8.978;2022-10-22T16:26:07;4.20;;;1.40;;
27025;SDS011;14565;48.626;8.978;2022-10-22T16:28:33;4.70;;;1.30;;
27025;SDS011;14565;48.626;8.978;2022-10-22T16:31:02;8.40;;;1.50;;
27025;SDS011;14565;48.626;8.978;2022-10-22T16:33:30;6.10;;;1.38;;
27025;SDS011;14565;48.626;8.978;2022-10-22T16:35:56;6.15;;;1.33;;
27025;SDS011;14565;48.626;8.978;2022-10-22T16:38:25;3.78;;;1.20;;
27025;SDS011;14565;48.626;8.978;2022-10-22T16:40:52;9.13;;;1.13;;
27025;SDS011;14565;48.626;8.978;2022-10-22T16:43:17;3.47;;;1.08;;
27025;SDS011;14565;48.626;8.978;2022-10-22T16:45:47;3.65;;;1.20;;
27025;SDS011;14565;48.626;8.978;2022-10-22T16:48:13;5.20;;;1.10;;
27025;SDS011;14565;48.626;8.978;2022-10-22T16:50:40;5.60;;;1.48;;
27025;SDS011;14565;48.626;8.978;2022-10-22T16:53:05;9.05;;;1.80;;
27025;SDS011;14565;48.626;8.978;2022-10-22T16:55:34;9.35;;;2.20;;
27025;SDS011;14565;48.626;8.978;2022-10-22T16:58:01;19.38;;;10.88;;
27025;SDS011;14565;48.626;8.978;2022-10-22T17:00:26;22.23;;;12.13;;
27025;SDS011;14565;48.626;8.978;2022-10-22T17:02:52;13.40;;;5.40;;